createdAt,value
2022-09-21T00:24:02.638Z,0.60
2022-09-21T06:18:18.131Z,0.45
2022-09-21T06:20:47.244Z,0.50
2022-09-21T06:23:17.510Z,0.70
2022-09-21T06:25:46.221Z,0.50
2022-09-21T06:28:14.993Z,0.45
2022-09-21T06:30:45.130Z,0.50
2022-09-21T06:33:20.252Z,0.55
2022-09-21T06:35:54.596Z,0.50
2022-09-21T06:38:25.522Z,0.63
2022-09-21T06:40:55.953Z,0.82
2022-09-21T06:43:24.773Z,0.60
2022-09-21T06:45:57.302Z,0.50
2022-09-21T06:48:27.002Z,0.80
2022-09-21T06:50:59.559Z,0.80
2022-09-21T06:53:31.068Z,0.98
2022-09-21T06:56:02.924Z,0.90
2022-09-21T06:58:34.268Z,1.10
2022-09-21T07:01:08.143Z,0.90
2022-09-21T07:03:37.650Z,0.90
2022-09-21T07:06:06.842Z,0.93
2022-09-21T07:11:27.476Z,0.90
2022-09-21T07:13:56.415Z,0.82
2022-09-21T07:16:25.192Z,1.05
2022-09-21T07:18:53.888Z,1.10
2022-09-21T07:31:19.757Z,0.80
2022-09-21T07:33:48.526Z,0.95
2022-09-21T07:36:17.897Z,0.60
2022-09-21T07:38:46.637Z,0.60
2022-09-21T07:41:16.715Z,2.83
2022-09-21T07:43:45.570Z,2.95
2022-09-21T07:46:16.201Z,6.45
2022-09-21T07:48:44.930Z,2.90
2022-09-21T07:51:15.009Z,0.77
2022-09-21T07:53:45.497Z,0.45
2022-09-21T07:56:17.620Z,0.60
2022-09-21T09:43:04.827Z,0.70
2022-09-21T09:45:44.321Z,0.85
2022-09-21T09:48:43.879Z,0.60
2022-09-21T09:51:14.166Z,0.63
2022-09-21T09:53:42.940Z,0.60
2022-09-21T09:56:14.906Z,0.70
2022-09-21T09:58:48.106Z,0.50
2022-09-21T10:01:38.066Z,0.70
2022-09-21T10:04:10.179Z,0.63
2022-09-21T10:06:45.106Z,0.63
2022-09-21T10:09:25.573Z,0.60
2022-09-21T10:11:57.285Z,0.70
2022-09-21T10:14:29.610Z,0.52
2022-09-21T10:17:02.938Z,0.70
2022-09-21T10:19:33.272Z,1.73
2022-09-21T10:22:04.155Z,0.43
2022-09-21T10:24:34.989Z,0.60
2022-09-21T10:27:07.494Z,0.68
2022-09-21T10:29:44.466Z,0.90
2022-09-21T10:32:25.905Z,0.60
2022-09-21T10:35:21.515Z,0.60
2022-09-21T10:38:09.616Z,0.70
2022-09-21T10:40:39.532Z,0.70
2022-09-21T10:43:25.066Z,1.05
2022-09-21T10:45:56.607Z,0.77
2022-09-21T10:48:27.153Z,0.60
2022-09-21T10:50:58.133Z,0.80
2022-09-21T10:53:29.462Z,0.50
2022-09-21T10:56:15.661Z,0.60
2022-09-21T10:59:12.668Z,0.50
2022-09-21T11:01:46.875Z,1.00
2022-09-21T11:04:21.128Z,0.85
2022-09-21T11:17:04.905Z,0.80
2022-09-21T11:19:39.405Z,0.75
2022-09-21T11:22:28.591Z,0.75
2022-09-21T11:25:09.967Z,0.40
2022-09-21T11:27:41.681Z,0.57
2022-09-21T11:30:13.446Z,0.70
2022-09-21T11:33:02.371Z,0.50
2022-09-21T11:35:45.901Z,0.40
2022-09-21T11:38:33.645Z,0.60
2022-09-21T11:41:16.630Z,0.57
2022-09-21T11:44:00.681Z,0.60
2022-09-21T11:46:40.300Z,0.65
2022-09-21T11:49:27.911Z,0.32
2022-09-21T11:52:10.898Z,0.40
2022-09-21T11:55:01.609Z,0.47
2022-09-21T11:57:38.344Z,0.50
2022-09-21T12:00:15.831Z,0.65
2022-09-21T12:03:19.870Z,0.30
2022-09-21T12:06:02.962Z,0.30
2022-09-21T12:08:56.565Z,0.30
2022-09-21T12:11:36.886Z,0.70
2022-09-21T12:14:15.843Z,0.57
2022-09-21T12:16:54.882Z,0.45
2022-09-21T12:19:33.948Z,0.32
2022-09-21T12:22:09.148Z,0.20
2022-09-21T12:24:43.881Z,0.30
2022-09-21T12:27:22.738Z,0.50
2022-09-21T12:29:56.683Z,0.32
2022-09-21T12:32:32.324Z,0.40
2022-09-21T12:35:05.770Z,0.40
2022-09-21T12:37:39.499Z,0.30
2022-09-21T12:40:17.445Z,0.40
2022-09-21T12:42:52.048Z,0.30
2022-09-21T12:45:28.095Z,0.30
2022-09-21T12:48:01.959Z,0.52
2022-09-21T12:50:37.686Z,0.25
2022-09-21T12:53:06.922Z,0.40
2022-09-21T12:55:47.891Z,0.35
2022-09-21T12:58:41.355Z,0.35
2022-09-21T13:01:20.865Z,0.40
2022-09-21T13:04:02.077Z,0.40
2022-09-21T13:34:51.080Z,0.28
2022-09-21T13:37:31.109Z,0.45
2022-09-21T13:46:04.760Z,0.32
2022-09-21T13:48:36.058Z,0.55
2022-09-21T13:51:10.212Z,0.28
2022-09-21T13:53:42.256Z,0.30
2022-09-21T13:56:20.709Z,0.30
2022-09-21T13:58:53.257Z,0.32
2022-09-21T14:01:45.912Z,0.40
2022-09-21T14:04:23.905Z,0.30
2022-09-21T14:06:54.862Z,0.20
2022-09-21T14:09:28.546Z,0.20
2022-09-21T14:20:04.984Z,0.25
2022-09-21T14:22:42.767Z,0.20
2022-09-21T14:25:29.167Z,0.30
2022-09-21T14:28:13.132Z,0.30
2022-09-21T14:30:49.386Z,0.40
2022-09-21T14:33:27.412Z,0.38
2022-09-21T14:35:57.621Z,0.22
2022-09-21T14:38:30.676Z,0.10
2022-09-21T14:41:02.792Z,0.30
2022-09-21T14:43:35.418Z,0.38
2022-09-21T14:46:47.701Z,0.20
2022-09-21T14:49:47.251Z,0.20
2022-09-21T14:52:32.367Z,0.20
2022-09-21T14:55:15.889Z,0.40
2022-09-21T14:57:59.354Z,0.30
2022-09-21T15:00:39.717Z,0.22
2022-09-21T15:03:39.081Z,0.30
2022-09-21T15:06:37.704Z,0.30
2022-09-21T15:09:46.170Z,0.30
2022-09-21T15:12:20.842Z,0.45
2022-09-21T15:14:57.599Z,0.40
2022-09-21T15:17:29.971Z,0.40
2022-09-21T15:20:00.852Z,0.20
2022-09-21T15:22:31.983Z,0.30
2022-09-21T15:25:05.990Z,0.30
